LFBG/CNG METAR and TAF weather

Enter ICAO airport designator
Station Type Date Time Source
LFBG METAR 2019/04/20 22:30 UTC NOAA

LFBG 202230Z AUTO 16010KT CAVOK 14/09 Q1021


Station Type Date Time Source
LFBG Decoded METAR 2019/04/20 22:30 UTC NOAA

Cognac, France (LFBG) 45-40N 000-19W 31M
Apr 20, 2019 - 06:30 PM EDT / 2019.04.20 2230 UTC
Wind: from the SSE (160 degrees) at 12 MPH (10 KT):0
Visibility: greater than 7 mile(s):0
Temperature: 57 F (14 C)
Dew Point: 48 F (9 C)
Relative Humidity: 71%
Pressure (altimeter): 30.15 in. Hg (1021 hPa)
ob: LFBG 202230Z AUTO 16010KT CAVOK 14/09 Q1021
cycle: 22

Station Type Date Time Source
LFBG TAF 2019/04/19 13:56 UTC NOAA

TAF LFBG 191350Z 1913/2009 CNL

Example: see airport list